Time;durP1;ratioP1;P1;durP2;ratioP2;P2;SDS_P1;SDS_P2;PMS_P1;PMS_P2;Temp;Humidity;BMP_temperature;BMP_pressure;BME280_temperature;BME280_humidity;BME280_pressure;Samples;Min_cycle;Max_cycle;Signal;HPM_P1;HPM_P2
2023/03/05 00:01:33;;;;;;;14.68;1.88;;;3.00;99.90;;;;;;5049180;28;20080;-85
2023/03/05 00:04:00;;;;;;;11.40;1.42;;;3.50;99.90;;;;;;5033941;28;20041;-86
2023/03/05 00:06:28;;;;;;;14.48;2.03;;;3.10;99.90;;;;;;5033646;28;20079;-86
2023/03/05 00:08:55;;;;;;;10.70;2.45;;;3.30;99.90;;;;;;5031822;28;20091;-86
2023/03/05 00:11:21;;;;;;;17.52;1.60;;;3.10;99.90;;;;;;5050205;28;20114;-86
2023/03/05 00:13:50;;;;;;;10.05;1.58;;;3.30;99.90;;;;;;5049776;28;20098;-86
2023/03/05 00:16:16;;;;;;;6.93;1.27;;;3.70;99.90;;;;;;5033001;28;20057;-86
2023/03/05 00:18:42;;;;;;;13.98;1.55;;;3.40;99.90;;;;;;5032986;28;20542;-86
2023/03/05 00:21:19;;;;;;;13.98;1.83;;;3.10;99.90;;;;;;5033116;28;20045;-86
2023/03/05 00:23:45;;;;;;;16.30;2.28;;;3.80;99.90;;;;;;5047954;28;20080;-86
2023/03/05 00:26:10;;;;;;;12.65;1.75;;;3.30;99.90;;;;;;5033195;28;20088;-86
2023/03/05 00:28:36;;;;;;;11.85;1.67;;;3.60;99.90;;;;;;5065884;28;20048;-86
2023/03/05 00:31:02;;;;;;;17.08;1.52;;;3.20;99.90;;;;;;5065729;28;20404;-85
2023/03/05 00:33:28;;;;;;;12.95;1.60;;;3.10;99.90;;;;;;5033222;28;20201;-86
2023/03/05 00:35:53;;;;;;;14.73;1.45;;;3.10;99.90;;;;;;5031925;28;20041;-85
2023/03/05 00:38:19;;;;;;;9.88;1.95;;;3.20;99.90;;;;;;5032110;28;20048;-85
2023/03/05 00:40:45;;;;;;;9.90;2.20;;;3.60;99.90;;;;;;5032510;28;20045;-86
2023/03/05 00:43:10;;;;;;;14.93;1.65;;;3.10;99.90;;;;;;5032230;28;20548;-86
2023/03/05 00:45:36;;;;;;;13.50;1.40;;;3.50;99.90;;;;;;5066252;28;20044;-86
2023/03/05 00:48:03;;;;;;;11.07;2.08;;;3.60;99.90;;;;;;5032787;28;20056;-86
2023/03/05 00:50:28;;;;;;;13.30;1.70;;;3.20;99.90;;;;;;5049136;28;20052;-87
2023/03/05 00:52:54;;;;;;;12.43;1.33;;;3.70;99.90;;;;;;5032488;28;20056;-86
2023/03/05 00:55:20;;;;;;;12.82;2.70;;;3.70;99.90;;;;;;5065073;28;20041;-86
2023/03/05 00:57:46;;;;;;;12.32;1.88;;;3.80;99.90;;;;;;5031584;28;20499;-86
2023/03/05 01:00:13;;;;;;;13.80;1.70;;;3.30;99.90;;;;;;5031702;28;20068;-85
2023/03/05 01:02:40;;;;;;;18.15;2.20;;;3.10;99.90;;;;;;5049100;28;20044;-86
2023/03/05 01:05:06;;;;;;;10.55;1.80;;;3.10;99.90;;;;;;5025483;28;20413;-86
2023/03/05 01:07:31;;;;;;;9.68;1.25;;;3.10;99.90;;;;;;5011865;28;20053;-87
2023/03/05 01:09:57;;;;;;;11.50;1.45;;;3.70;99.90;;;;;;5012182;28;20060;-86
2023/03/05 01:12:23;;;;;;;8.80;1.02;;;3.10;99.90;;;;;;5011993;28;20037;-86
2023/03/05 01:14:49;;;;;;;10.80;1.27;;;3.20;99.90;;;;;;5012648;28;20049;-86
2023/03/05 01:17:14;;;;;;;8.93;1.10;;;3.20;99.90;;;;;;5012121;28;20060;-86
2023/03/05 01:19:40;;;;;;;8.52;1.10;;;3.30;99.90;;;;;;5011747;28;20057;-87
2023/03/05 01:22:06;;;;;;;6.82;1.25;;;3.30;99.90;;;;;;5027582;28;20132;-86
2023/03/05 01:24:32;;;;;;;7.60;0.93;;;3.50;99.90;;;;;;5027596;28;20049;-86
2023/03/05 01:26:58;;;;;;;10.40;1.33;;;3.20;99.90;;;;;;5012072;28;20136;-86
2023/03/05 01:29:23;;;;;;;8.18;0.93;;;3.30;99.90;;;;;;5027962;28;20128;-85
2023/03/05 01:31:49;;;;;;;6.35;1.15;;;3.40;99.90;;;;;;5012233;28;20647;-85
2023/03/05 01:34:15;;;;;;;4.60;0.77;;;3.20;99.90;;;;;;5011634;28;20132;-85
2023/03/05 01:36:41;;;;;;;12.25;1.77;;;3.60;99.90;;;;;;5045072;28;20041;-86
2023/03/05 01:39:07;;;;;;;7.50;0.90;;;3.30;99.90;;;;;;5043357;28;20187;-86
2023/03/05 01:41:33;;;;;;;12.40;1.73;;;3.20;99.90;;;;;;5028263;28;20041;-87
2023/03/05 01:43:59;;;;;;;11.00;1.38;;;3.10;99.90;;;;;;5011859;28;20053;-86
2023/03/05 01:46:29;;;;;;;7.97;1.02;;;3.50;99.90;;;;;;5044122;28;20056;-86
2023/03/05 01:49:02;;;;;;;10.55;0.80;;;3.10;99.90;;;;;;5028350;28;20088;-86
2023/03/05 01:51:32;;;;;;;4.82;0.65;;;3.20;99.90;;;;;;5027940;28;20109;-86
2023/03/05 01:53:59;;;;;;;7.80;0.65;;;3.10;99.90;;;;;;5027529;28;20041;-86
2023/03/05 01:56:27;;;;;;;8.60;0.93;;;3.20;99.90;;;;;;5028374;28;20402;-86
2023/03/05 01:59:02;;;;;;;6.05;0.93;;;3.50;99.90;;;;;;5028401;28;20087;-86
2023/03/05 02:01:39;;;;;;;6.60;0.95;;;3.60;99.90;;;;;;5044763;28;20077;-87
2023/03/05 02:04:07;;;;;;;5.35;1.08;;;3.60;99.90;;;;;;5028261;28;20096;-87
2023/03/05 02:06:34;;;;;;;9.32;1.10;;;3.10;99.90;;;;;;5030629;28;20525;-87
2023/03/05 02:08:59;;;;;;;7.45;1.13;;;3.10;99.90;;;;;;5046221;28;20099;-86
2023/03/05 02:11:25;;;;;;;6.30;1.33;;;3.60;99.90;;;;;;5048425;28;20049;-86
2023/03/05 02:13:51;;;;;;;9.63;1.10;;;3.10;99.90;;;;;;5048505;28;20051;-86
2023/03/05 02:16:18;;;;;;;8.45;0.95;;;3.30;99.90;;;;;;5047755;28;20404;-86
2023/03/05 02:18:44;;;;;;;5.72;1.00;;;3.00;99.90;;;;;;5047844;28;20045;-86
2023/03/05 02:21:10;;;;;;;5.03;0.85;;;2.90;99.90;;;;;;5046896;28;20086;-86
2023/03/05 02:23:37;;;;;;;7.75;1.02;;;3.50;99.90;;;;;;5048005;28;20127;-86
2023/03/05 02:26:06;;;;;;;3.17;0.77;;;3.30;99.90;;;;;;5047657;28;20072;-86
2023/03/05 02:28:38;;;;;;;6.72;1.48;;;3.00;99.90;;;;;;5047194;28;20406;-86
2023/03/05 02:31:11;;;;;;;5.97;1.15;;;2.80;99.90;;;;;;5047634;28;20049;-86
2023/03/05 02:33:37;;;;;;;;;;;2.80;99.90;;;;;;5048233;28;20056;-86
2023/03/05 02:36:03;;;;;;;6.80;1.30;;;3.20;99.90;;;;;;5030544;28;19920;-86
2023/03/05 02:38:29;;;;;;;8.15;1.20;;;2.70;99.90;;;;;;5047594;28;20114;-86
2023/03/05 02:40:54;;;;;;;9.02;1.20;;;3.20;99.90;;;;;;5046552;28;20041;-87
2023/03/05 02:43:20;;;;;;;7.45;1.17;;;2.70;99.90;;;;;;5046955;28;20045;-88
2023/03/05 02:45:46;;;;;;;5.47;1.10;;;2.70;99.90;;;;;;5047822;28;20488;-87
2023/03/05 02:48:11;;;;;;;6.97;1.30;;;2.70;99.90;;;;;;5047655;28;20049;-87
2023/03/05 02:50:38;;;;;;;9.07;1.60;;;3.20;99.90;;;;;;5047436;28;20499;-87
2023/03/05 02:53:05;;;;;;;5.20;1.33;;;3.10;99.90;;;;;;5047410;28;20397;-87
2023/03/05 02:55:31;;;;;;;11.40;1.55;;;3.10;99.90;;;;;;5047307;28;20036;-86
2023/03/05 02:57:56;;;;;;;6.15;1.75;;;3.00;99.90;;;;;;5047214;28;20539;-86
2023/03/05 03:00:22;;;;;;;10.25;1.60;;;2.60;99.90;;;;;;5046750;28;20242;-86
2023/03/05 03:02:48;;;;;;;7.50;1.27;;;2.60;99.90;;;;;;5047706;28;20037;-87
2023/03/05 03:05:14;;;;;;;6.85;1.30;;;2.80;99.90;;;;;;5046200;28;20052;-86
2023/03/05 03:07:40;;;;;;;8.63;1.52;;;2.70;99.90;;;;;;5047624;28;20041;-87
2023/03/05 03:10:06;;;;;;;6.45;1.35;;;2.70;99.90;;;;;;5029993;28;20068;-86
2023/03/05 03:12:37;;;;;;;12.70;2.00;;;2.70;99.90;;;;;;5045747;28;20420;-87
2023/03/05 03:15:03;;;;;;;5.35;1.23;;;2.80;99.90;;;;;;5048040;28;20053;-87
2023/03/05 03:17:28;;;;;;;9.95;1.08;;;2.80;99.90;;;;;;5047544;28;20052;-88
2023/03/05 03:19:54;;;;;;;11.25;1.30;;;2.80;99.90;;;;;;5047693;28;20519;-87
2023/03/05 03:22:20;;;;;;;16.60;1.73;;;3.10;99.90;;;;;;5030918;28;20045;-87
2023/03/05 03:24:46;;;;;;;8.05;1.15;;;3.40;99.90;;;;;;5029422;28;20400;-87
2023/03/05 03:27:11;;;;;;;6.15;0.70;;;3.10;99.90;;;;;;5031451;28;20049;-87
2023/03/05 03:29:37;;;;;;;7.22;1.00;;;3.10;99.90;;;;;;5030852;28;20564;-88
2023/03/05 03:32:03;;;;;;;8.43;0.98;;;2.60;99.90;;;;;;5033622;28;20500;-87
2023/03/05 03:34:29;;;;;;;13.18;1.15;;;2.50;99.90;;;;;;5034604;28;20059;-87
2023/03/05 03:36:54;;;;;;;9.57;0.98;;;3.50;99.90;;;;;;5051356;28;20041;-88
2023/03/05 03:39:21;;;;;;;5.18;0.80;;;2.80;99.90;;;;;;5033171;28;20048;-87
2023/03/05 03:41:49;;;;;;;3.75;1.15;;;2.40;99.90;;;;;;5034140;28;20471;-87
2023/03/05 03:44:17;;;;;;;6.47;1.10;;;2.30;99.90;;;;;;5035254;28;20053;-87
2023/03/05 03:46:45;;;;;;;8.30;1.33;;;2.70;99.90;;;;;;5033813;28;20037;-86
2023/03/05 03:49:18;;;;;;;11.30;1.38;;;2.30;99.90;;;;;;5034542;28;20468;-87
2023/03/05 03:51:45;;;;;;;11.52;1.20;;;2.40;99.90;;;;;;5034428;28;20040;-86
2023/03/05 03:54:11;;;;;;;7.28;1.20;;;2.90;99.90;;;;;;5033113;28;20095;-88
2023/03/05 03:56:37;;;;;;;5.68;1.00;;;2.50;99.90;;;;;;5035007;28;20072;-88
2023/03/05 03:59:03;;;;;;;6.60;0.85;;;3.10;99.90;;;;;;5034977;28;20080;-89
2023/03/05 04:01:28;;;;;;;9.10;1.10;;;2.40;99.90;;;;;;5034607;28;20103;-88
2023/03/05 04:03:54;;;;;;;7.03;0.93;;;3.10;99.90;;;;;;5035240;28;20132;-88
2023/03/05 04:06:20;;;;;;;5.95;0.85;;;2.40;99.90;;;;;;5034573;28;20052;-89
2023/03/05 04:08:46;;;;;;;7.22;0.90;;;3.20;99.90;;;;;;5033027;28;20140;-88
2023/03/05 04:11:11;;;;;;;7.20;1.08;;;2.70;99.90;;;;;;5035107;28;20080;-89
2023/03/05 04:13:37;;;;;;;11.38;0.93;;;2.40;99.90;;;;;;5033915;28;20045;-88
2023/03/05 04:16:03;;;;;;;8.40;1.08;;;2.80;99.90;;;;;;5034615;28;20040;-88
2023/03/05 04:18:29;;;;;;;2.88;0.65;;;2.30;99.90;;;;;;5034633;28;20048;-88
2023/03/05 04:20:54;;;;;;;4.80;0.82;;;3.00;99.90;;;;;;5055507;28;20086;-88
2023/03/05 04:23:20;;;;;;;8.60;1.05;;;2.50;99.90;;;;;;5034603;28;20052;-88
2023/03/05 04:25:46;;;;;;;4.80;1.02;;;2.90;99.90;;;;;;5051626;28;20462;-88
2023/03/05 04:28:12;;;;;;;9.80;1.10;;;3.10;99.90;;;;;;5034065;28;20484;-88
2023/03/05 04:30:38;;;;;;;4.03;0.80;;;2.90;99.90;;;;;;5034638;28;20033;-88
2023/03/05 04:33:04;;;;;;;6.45;0.68;;;2.20;99.90;;;;;;5050674;28;20404;-89
2023/03/05 04:35:29;;;;;;;9.50;1.02;;;2.70;99.90;;;;;;5034331;28;20047;-88
2023/03/05 04:37:55;;;;;;;10.80;1.33;;;2.80;99.90;;;;;;5033891;28;20056;-88
2023/03/05 04:40:22;;;;;;;6.20;0.90;;;2.90;99.90;;;;;;5033464;28;20049;-89
2023/03/05 04:42:47;;;;;;;8.95;1.42;;;3.00;99.90;;;;;;5034165;28;20041;-88
2023/03/05 04:45:13;;;;;;;6.95;1.70;;;2.30;99.90;;;;;;5033870;28;20127;-88
2023/03/05 04:47:39;;;;;;;9.25;0.90;;;2.20;99.90;;;;;;5034157;28;20072;-88
2023/03/05 04:50:05;;;;;;;10.93;1.13;;;2.20;99.90;;;;;;5033605;28;20051;-88
2023/03/05 04:52:31;;;;;;;8.60;1.40;;;2.30;99.90;;;;;;5033946;28;20048;-88
2023/03/05 04:54:57;;;;;;;8.40;1.10;;;2.70;99.90;;;;;;5033851;28;20538;-88
2023/03/05 04:57:23;;;;;;;6.68;1.20;;;2.80;99.90;;;;;;5033079;28;20095;-88
2023/03/05 04:59:49;;;;;;;11.18;1.63;;;2.70;99.90;;;;;;5034375;28;20045;-88
2023/03/05 05:02:14;;;;;;;5.72;0.93;;;2.20;99.90;;;;;;5033965;28;20189;-88
2023/03/05 05:04:43;;;;;;;8.27;0.93;;;2.50;99.90;;;;;;5036155;28;20061;-89
2023/03/05 05:07:10;;;;;;;7.30;1.10;;;3.10;99.90;;;;;;5037274;28;20477;-89
2023/03/05 05:09:38;;;;;;;6.53;1.05;;;2.80;99.90;;;;;;5036295;28;20043;-89
2023/03/05 05:12:04;;;;;;;5.63;0.85;;;2.30;99.90;;;;;;5036629;28;20049;-88
2023/03/05 05:14:30;;;;;;;9.75;1.40;;;2.20;99.90;;;;;;5036178;28;20400;-88
2023/03/05 05:16:56;;;;;;;8.98;1.40;;;2.20;99.90;;;;;;5036233;28;20044;-88
2023/03/05 05:19:22;;;;;;;9.75;1.63;;;2.90;99.90;;;;;;5036716;28;20056;-88
2023/03/05 05:21:47;;;;;;;9.00;1.60;;;2.70;99.90;;;;;;5052533;28;20150;-87
2023/03/05 05:24:38;;;;;;;5.55;1.10;;;2.90;99.90;;;;;;5072615;28;20094;-88
2023/03/05 05:27:23;;;;;;;9.32;1.45;;;2.30;99.90;;;;;;5091176;28;20909;-88
2023/03/05 05:29:49;;;;;;;9.10;1.92;;;3.10;99.90;;;;;;5055995;28;20040;-87
2023/03/05 05:32:16;;;;;;;7.30;1.17;;;3.40;99.90;;;;;;5056350;28;20062;-88
2023/03/05 05:34:42;;;;;;;11.68;1.10;;;2.90;99.90;;;;;;5056140;28;20369;-87
2023/03/05 05:37:07;;;;;;;11.43;1.30;;;2.40;99.90;;;;;;5056165;28;20505;-88
2023/03/05 05:39:34;;;;;;;7.07;1.10;;;2.30;99.90;;;;;;5054993;28;20167;-88
2023/03/05 05:42:00;;;;;;;7.47;1.38;;;2.40;99.90;;;;;;5056003;28;20055;-88
2023/03/05 05:44:26;;;;;;;8.60;0.93;;;3.00;99.90;;;;;;5056132;28;20047;-88
2023/03/05 05:46:51;;;;;;;5.95;1.10;;;2.20;99.90;;;;;;5055590;28;20046;-88
2023/03/05 05:49:17;;;;;;;8.65;0.90;;;2.20;99.90;;;;;;5056223;28;20039;-88
2023/03/05 05:51:43;;;;;;;8.15;1.23;;;2.60;99.90;;;;;;5056136;28;20457;-87
2023/03/05 05:54:12;;;;;;;3.65;0.82;;;2.20;99.90;;;;;;5053001;28;20058;-88
2023/03/05 05:56:38;;;;;;;7.70;0.90;;;2.70;99.90;;;;;;5055961;28;20040;-89
2023/03/05 05:59:03;;;;;;;6.85;0.98;;;2.00;99.90;;;;;;5055545;28;20055;-89
2023/03/05 06:01:31;;;;;;;10.18;1.40;;;2.70;99.90;;;;;;5056701;28;20047;-88
2023/03/05 06:03:58;;;;;;;7.65;1.00;;;2.00;99.90;;;;;;5055855;28;20510;-88
2023/03/05 06:06:26;;;;;;;12.93;1.20;;;2.50;99.90;;;;;;5055052;28;20048;-88
2023/03/05 06:08:52;;;;;;;6.15;1.13;;;2.50;99.90;;;;;;5054977;28;20059;-88
2023/03/05 06:11:18;;;;;;;7.18;1.00;;;1.90;99.90;;;;;;5053417;28;20052;-88
2023/03/05 06:13:44;;;;;;;9.57;1.48;;;2.60;99.90;;;;;;5054226;28;20062;-87
2023/03/05 06:16:14;;;;;;;8.25;0.80;;;2.70;99.90;;;;;;5051911;28;20391;-88
2023/03/05 06:18:40;;;;;;;12.10;1.45;;;2.30;99.90;;;;;;5054206;28;20048;-88
2023/03/05 06:21:12;;;;;;;8.45;1.15;;;2.10;99.90;;;;;;5050911;28;20072;-87
2023/03/05 06:23:38;;;;;;;14.73;1.63;;;1.80;99.90;;;;;;5052981;28;20075;-88
2023/03/05 06:26:05;;;;;;;9.63;1.23;;;2.60;99.90;;;;;;5053426;28;20078;-89
2023/03/05 06:28:32;;;;;;;6.82;0.82;;;1.80;99.90;;;;;;5051366;28;20044;-87
2023/03/05 06:31:00;;;;;;;10.23;1.27;;;2.10;99.90;;;;;;5055628;28;20044;-88
2023/03/05 06:33:26;;;;;;;8.73;1.30;;;1.90;99.90;;;;;;5055102;28;20048;-87
2023/03/05 06:35:52;;;;;;;6.20;1.00;;;2.30;99.90;;;;;;5054669;28;20040;-87
2023/03/05 06:38:17;;;;;;;15.02;1.20;;;2.40;99.90;;;;;;5054679;28;20089;-88
2023/03/05 06:40:43;;;;;;;7.82;1.15;;;2.40;99.90;;;;;;5054956;28;20126;-88
2023/03/05 06:43:09;;;;;;;8.93;1.20;;;2.50;99.90;;;;;;5054376;28;20044;-89
2023/03/05 06:45:35;;;;;;;10.25;1.08;;;2.20;99.90;;;;;;5055858;28;20038;-88
2023/03/05 06:48:00;;;;;;;9.93;1.15;;;2.80;99.90;;;;;;5055689;28;20600;-89
2023/03/05 06:50:26;;;;;;;9.05;1.30;;;2.40;99.90;;;;;;5052607;28;20070;-87
2023/03/05 06:52:52;;;;;;;6.25;1.10;;;2.30;99.90;;;;;;5034917;28;20044;-87
2023/03/05 06:55:18;;;;;;;6.78;1.17;;;2.30;99.90;;;;;;5033146;28;20044;-87
2023/03/05 06:57:44;;;;;;;12.70;1.75;;;2.40;99.90;;;;;;5033925;28;20098;-88
2023/03/05 07:00:11;;;;;;;9.20;1.52;;;2.40;99.90;;;;;;5035478;28;20047;-87
2023/03/05 07:02:37;;;;;;;8.13;1.65;;;2.40;99.90;;;;;;5034875;28;20032;-90
2023/03/05 07:05:05;;;;;;;6.68;1.05;;;2.90;99.90;;;;;;5035577;28;20078;-91
2023/03/05 07:07:31;;;;;;;6.35;1.38;;;2.50;99.90;;;;;;5040356;28;20072;-89
2023/03/05 07:09:57;;;;;;;12.07;1.48;;;2.50;99.90;;;;;;5046063;28;20067;-90
2023/03/05 07:12:23;;;;;;;10.93;1.40;;;2.70;99.90;;;;;;5058614;28;20082;-90
2023/03/05 07:14:48;;;;;;;14.55;1.35;;;2.60;99.90;;;;;;5057533;28;20116;-90
2023/03/05 07:17:16;;;;;;;7.85;1.42;;;2.60;99.90;;;;;;5056705;28;20173;-90
2023/03/05 07:19:42;;;;;;;9.60;1.00;;;3.30;99.90;;;;;;5055874;28;20127;-90
2023/03/05 07:22:08;;;;;;;7.30;1.48;;;3.00;99.90;;;;;;5058383;28;20067;-93
2023/03/05 07:24:34;;;;;;;6.65;1.00;;;2.70;99.90;;;;;;5056319;28;20068;-92
2023/03/05 07:27:00;;;;;;;12.55;1.17;;;2.80;99.90;;;;;;5059379;28;20421;-91
2023/03/05 07:29:27;;;;;;;10.50;1.20;;;2.40;99.90;;;;;;5059630;28;20201;-89
2023/03/05 07:31:54;;;;;;;7.55;1.55;;;3.10;99.90;;;;;;5058999;28;20036;-90
2023/03/05 07:34:20;;;;;;;6.35;1.02;;;3.00;99.90;;;;;;5059114;28;20123;-91
2023/03/05 07:36:50;;;;;;;13.77;1.60;;;3.00;99.90;;;;;;5059952;28;20036;-90
2023/03/05 07:39:17;;;;;;;8.15;1.15;;;3.10;99.90;;;;;;5056851;28;20376;-88
2023/03/05 07:41:45;;;;;;;9.65;1.10;;;3.40;99.90;;;;;;5057799;28;20055;-88
2023/03/05 07:44:11;;;;;;;4.85;1.00;;;3.30;99.90;;;;;;5058369;28;20048;-88
2023/03/05 07:46:37;;;;;;;9.45;1.15;;;3.30;99.90;;;;;;5057607;28;20047;-89
2023/03/05 07:49:03;;;;;;;6.45;1.50;;;3.60;99.90;;;;;;5054958;28;20051;-89
2023/03/05 07:51:29;;;;;;;9.10;1.35;;;3.40;99.90;;;;;;5055344;28;20055;-89
2023/03/05 07:53:57;;;;;;;7.45;1.25;;;3.90;99.90;;;;;;5053396;28;20404;-88
2023/03/05 07:56:25;;;;;;;9.73;0.88;;;4.00;99.90;;;;;;5056578;28;20040;-88
2023/03/05 07:58:52;;;;;;;9.60;1.00;;;4.10;99.90;;;;;;5057114;28;20047;-88
2023/03/05 08:01:17;;;;;;;13.43;1.10;;;3.70;99.90;;;;;;5054536;28;20040;-88
2023/03/05 08:03:43;;;;;;;9.65;1.33;;;3.80;99.90;;;;;;5054709;28;20041;-88
2023/03/05 08:06:11;;;;;;;12.10;1.23;;;3.90;99.90;;;;;;5055813;28;20083;-89
2023/03/05 08:08:37;;;;;;;9.25;1.25;;;4.10;99.90;;;;;;5054815;28;20119;-88
2023/03/05 08:11:08;;;;;;;8.32;1.08;;;3.90;99.90;;;;;;5057652;28;20487;-90
2023/03/05 08:13:33;;;;;;;7.05;0.98;;;4.00;99.90;;;;;;5052443;28;20052;-90
2023/03/05 08:16:03;;;;;;;8.48;0.88;;;4.00;99.90;;;;;;5048823;28;20041;-90
2023/03/05 08:18:29;;;;;;;6.47;0.80;;;4.00;99.90;;;;;;5042349;28;20127;-90
2023/03/05 08:20:55;;;;;;;11.43;1.88;;;4.50;99.90;;;;;;5055491;28;20127;-89
2023/03/05 08:23:21;;;;;;;9.25;1.10;;;4.10;99.90;;;;;;5056955;28;20043;-89
2023/03/05 08:25:46;;;;;;;11.80;1.23;;;4.10;99.90;;;;;;5054567;28;20059;-89
2023/03/05 08:28:12;;;;;;;13.40;1.40;;;4.10;99.90;;;;;;5055991;28;20056;-89
2023/03/05 08:30:39;;;;;;;10.65;1.30;;;4.30;99.90;;;;;;5055340;28;20344;-89
2023/03/05 08:33:05;;;;;;;12.40;1.40;;;4.20;99.90;;;;;;5054572;28;20040;-90
2023/03/05 08:35:31;;;;;;;12.68;1.67;;;4.30;99.90;;;;;;5056509;28;20058;-90
2023/03/05 08:37:57;;;;;;;10.38;1.77;;;4.30;99.90;;;;;;5060821;28;20067;-90
2023/03/05 08:40:22;;;;;;;7.97;1.25;;;4.40;99.90;;;;;;5057904;28;20142;-91
2023/03/05 08:42:50;;;;;;;8.02;1.35;;;4.60;99.90;;;;;;5057785;28;20044;-91
2023/03/05 08:45:19;;;;;;;7.13;1.20;;;4.70;99.90;;;;;;5058580;28;20083;-91
2023/03/05 08:47:44;;;;;;;7.20;1.10;;;4.80;99.90;;;;;;5057911;28;20078;-92
2023/03/05 08:50:11;;;;;;;7.70;1.48;;;4.90;99.90;;;;;;5057183;28;20144;-89
2023/03/05 08:52:36;;;;;;;10.13;1.30;;;4.90;99.90;;;;;;5058376;28;20491;-90
2023/03/05 08:55:03;;;;;;;6.68;1.30;;;5.00;99.90;;;;;;5056383;28;20130;-90
2023/03/05 08:57:28;;;;;;;13.13;1.27;;;5.00;99.90;;;;;;5054815;28;20098;-90
2023/03/05 08:59:54;;;;;;;8.02;0.73;;;5.00;99.90;;;;;;5054818;28;20049;-89
2023/03/05 09:02:20;;;;;;;10.77;1.42;;;5.10;99.90;;;;;;5052946;28;20039;-90
2023/03/05 09:04:45;;;;;;;12.55;1.38;;;5.00;99.90;;;;;;5054073;28;20528;-89
2023/03/05 09:07:11;;;;;;;9.18;1.17;;;5.10;99.90;;;;;;5053825;28;20048;-88
2023/03/05 09:09:37;;;;;;;8.40;1.10;;;5.40;99.90;;;;;;5052998;28;20190;-90
2023/03/05 09:12:03;;;;;;;7.28;1.60;;;5.30;99.90;;;;;;5054039;28;20131;-90
2023/03/05 09:14:29;;;;;;;8.75;1.30;;;5.40;99.90;;;;;;5054331;28;20182;-89
2023/03/05 09:16:55;;;;;;;7.68;0.80;;;5.40;99.90;;;;;;5071242;28;20044;-89
2023/03/05 09:19:22;;;;;;;5.30;0.93;;;5.20;99.90;;;;;;5054738;28;20083;-88
2023/03/05 09:21:48;;;;;;;2.97;0.47;;;5.30;99.90;;;;;;5053698;28;20129;-88
2023/03/05 09:24:14;;;;;;;4.80;0.57;;;5.00;99.90;;;;;;5052329;28;20041;-88
2023/03/05 09:26:41;;;;;;;5.00;0.63;;;5.00;99.90;;;;;;5053409;28;20040;-87
2023/03/05 09:29:07;;;;;;;5.50;0.70;;;4.90;99.90;;;;;;5052535;28;20070;-87
2023/03/05 09:31:36;;;;;;;4.15;0.40;;;4.90;99.90;;;;;;5053096;28;20100;-88
2023/03/05 09:34:03;;;;;;;7.22;0.77;;;5.60;99.90;;;;;;5053162;28;20044;-87
2023/03/05 09:36:30;;;;;;;3.45;0.65;;;5.00;99.90;;;;;;5053744;28;20049;-87
2023/03/05 09:38:56;;;;;;;4.03;0.70;;;5.60;99.90;;;;;;5052028;28;20044;-87
2023/03/05 09:41:29;;;;;;;5.10;0.70;;;5.00;99.90;;;;;;5053483;28;20040;-87
2023/03/05 09:44:10;;;;;;;5.47;0.65;;;5.10;99.90;;;;;;5056337;28;20406;-87
2023/03/05 09:46:49;;;;;;;4.22;0.60;;;5.20;99.90;;;;;;5056755;28;20485;-87
2023/03/05 09:49:37;;;;;;;7.60;0.75;;;5.40;99.90;;;;;;5057036;28;20083;-95
2023/03/05 09:52:14;;;;;;;4.57;0.60;;;5.70;99.90;;;;;;5057463;28;20051;-88
2023/03/05 09:54:44;;;;;;;8.15;0.75;;;5.70;99.90;;;;;;5056463;28;20042;-88
2023/03/05 09:57:17;;;;;;;6.78;0.80;;;5.80;99.90;;;;;;5056713;28;20036;-87
2023/03/05 09:59:46;;;;;;;;;;;6.00;99.90;;;;;;5056444;28;20048;-88
2023/03/05 10:02:17;;;;;;;2.92;0.52;;;6.10;99.90;;;;;;5053222;28;20029;-88
2023/03/05 10:04:51;;;;;;;8.25;0.60;;;6.30;99.90;;;;;;5055310;28;20059;-87
2023/03/05 10:07:21;;;;;;;9.70;1.10;;;6.30;99.90;;;;;;5053065;28;20098;-89
2023/03/05 10:09:55;;;;;;;6.50;1.20;;;6.20;99.90;;;;;;5036949;28;20024;-89
2023/03/05 10:12:30;;;;;;;7.53;0.98;;;6.10;99.90;;;;;;5036445;28;20048;-88
2023/03/05 10:14:59;;;;;;;6.63;0.88;;;6.00;99.90;;;;;;5050755;28;20498;-89
2023/03/05 10:17:38;;;;;;;4.25;0.73;;;5.90;99.90;;;;;;5054629;28;20388;-89
2023/03/05 10:20:23;;;;;;;4.95;0.80;;;5.90;99.90;;;;;;5071744;28;20108;-88
2023/03/05 10:23:07;;;;;;;8.85;1.25;;;5.80;99.90;;;;;;5054644;28;20040;-88
2023/03/05 10:25:43;;;;;;;10.95;1.10;;;5.80;99.90;;;;;;5053187;28;20452;-89
2023/03/05 10:28:16;;;;;;;6.82;1.00;;;5.80;99.90;;;;;;5057109;28;20032;-88
2023/03/05 10:30:59;;;;;;;11.10;1.10;;;5.80;99.90;;;;;;5050809;28;20483;-88
2023/03/05 10:33:35;;;;;;;11.48;1.20;;;5.90;99.90;;;;;;5056081;28;20080;-87
2023/03/05 10:36:24;;;;;;;8.15;0.95;;;5.90;99.90;;;;;;5055732;28;20047;-89
2023/03/05 10:38:51;;;;;;;9.05;1.23;;;5.90;99.90;;;;;;5035985;28;20076;-88
2023/03/05 10:41:38;;;;;;;3.75;0.75;;;6.00;99.90;;;;;;5054079;28;20127;-89
2023/03/05 10:44:14;;;;;;;4.25;0.50;;;6.10;99.90;;;;;;5049329;28;20036;-88
2023/03/05 10:46:40;;;;;;;3.95;0.85;;;6.10;99.90;;;;;;5053585;28;20139;-88
2023/03/05 10:49:27;;;;;;;6.18;0.73;;;6.20;99.90;;;;;;5055393;28;20065;-89
2023/03/05 10:52:12;;;;;;;13.88;1.20;;;6.40;99.90;;;;;;5056253;28;20083;-89
2023/03/05 10:54:40;;;;;;;12.73;1.20;;;6.60;99.90;;;;;;5055342;28;20094;-89
2023/03/05 10:57:17;;;;;;;9.48;0.93;;;6.70;99.90;;;;;;5050104;28;20048;-87
2023/03/05 11:00:05;;;;;;;6.97;0.63;;;6.70;99.90;;;;;;5049935;28;20045;-87
2023/03/05 11:02:31;;;;;;;9.85;0.90;;;6.50;99.90;;;;;;5033410;28;20048;-88
2023/03/05 11:04:57;;;;;;;5.85;0.98;;;6.50;99.90;;;;;;5050977;28;20523;-88
2023/03/05 11:07:24;;;;;;;10.93;0.90;;;6.50;99.90;;;;;;5051464;28;20052;-88
2023/03/05 11:09:59;;;;;;;7.95;1.88;;;6.70;99.90;;;;;;5032346;28;20044;-87
2023/03/05 11:12:27;;;;;;;8.68;0.90;;;6.90;99.90;;;;;;5033249;28;20094;-87
2023/03/05 11:15:09;;;;;;;6.82;0.95;;;7.00;99.90;;;;;;5050068;28;20511;-87
2023/03/05 11:17:42;;;;;;;6.93;0.90;;;7.00;99.90;;;;;;5033047;28;20044;-87
2023/03/05 11:20:26;;;;;;;6.40;1.00;;;7.20;99.90;;;;;;5049651;28;20058;-86
2023/03/05 11:23:12;;;;;;;6.03;0.70;;;7.30;99.90;;;;;;5032685;28;20064;-87
2023/03/05 11:25:59;;;;;;;10.65;1.40;;;7.20;99.90;;;;;;5050129;28;20059;-85
2023/03/05 11:28:28;;;;;;;9.02;1.65;;;7.10;99.90;;;;;;5050580;28;20067;-84
2023/03/05 11:31:11;;;;;;;9.68;1.35;;;7.00;99.90;;;;;;5049048;28;20509;-85
2023/03/05 11:33:37;;;;;;;10.55;1.27;;;6.90;99.90;;;;;;5049492;28;20044;-85
2023/03/05 11:36:21;;;;;;;4.22;1.13;;;7.00;99.90;;;;;;5050628;28;20475;-85
2023/03/05 11:38:53;;;;;;;5.95;0.95;;;6.90;99.90;;;;;;5048251;28;20462;-85
2023/03/05 11:41:25;;;;;;;4.65;0.70;;;6.90;99.90;;;;;;5049559;28;20044;-84
2023/03/05 11:43:53;;;;;;;4.82;0.70;;;6.70;99.90;;;;;;5049029;28;20048;-84
2023/03/05 11:46:20;;;;;;;12.18;1.27;;;6.60;99.90;;;;;;5049550;28;20052;-84
2023/03/05 11:48:46;;;;;;;4.50;0.73;;;6.60;99.90;;;;;;5049889;28;20472;-84
2023/03/05 11:51:21;;;;;;;11.27;0.80;;;6.60;99.90;;;;;;5049519;28;20473;-84
2023/03/05 11:53:51;;;;;;;7.68;0.90;;;6.60;99.90;;;;;;5052452;28;20040;-85
2023/03/05 11:56:24;;;;;;;6.95;0.60;;;6.60;99.90;;;;;;5053479;28;20373;-84
2023/03/05 11:58:53;;;;;;;;;;;6.60;99.90;;;;;;5036290;28;20484;-84
2023/03/05 12:01:23;;;;;;;8.15;0.80;;;6.60;99.90;;;;;;5053182;28;19931;-84
2023/03/05 12:03:51;;;;;;;7.20;1.30;;;6.60;99.90;;;;;;5053055;28;20040;-84
2023/03/05 12:06:44;;;;;;;6.50;0.85;;;6.50;99.90;;;;;;5035941;28;20140;-84
2023/03/05 12:09:39;;;;;;;6.20;0.65;;;6.60;99.90;;;;;;5051741;28;20086;-84
2023/03/05 12:12:11;;;;;;;11.60;1.33;;;6.80;99.90;;;;;;5035668;28;20044;-84
2023/03/05 12:14:47;;;;;;;7.22;1.13;;;6.80;99.90;;;;;;5052362;28;20056;-84
2023/03/05 12:17:24;;;;;;;6.85;0.70;;;6.80;99.90;;;;;;5036043;28;20569;-85
2023/03/05 12:20:11;;;;;;;5.90;1.10;;;6.80;99.90;;;;;;5035318;28;20055;-84
2023/03/05 12:22:40;;;;;;;4.30;0.50;;;6.90;99.90;;;;;;5035954;28;20049;-85
2023/03/05 12:25:31;;;;;;;4.82;0.70;;;7.10;99.90;;;;;;5051939;28;20048;-84
2023/03/05 12:27:58;;;;;;;3.63;0.70;;;7.20;99.90;;;;;;5035553;28;20563;-85
2023/03/05 12:30:47;;;;;;;8.63;0.70;;;7.40;99.90;;;;;;5036018;28;20041;-84
2023/03/05 12:33:37;;;;;;;6.97;0.90;;;7.40;99.90;;;;;;5034810;28;20385;-84
2023/03/05 12:36:21;;;;;;;8.48;1.70;;;7.30;99.90;;;;;;5035932;28;20087;-83
2023/03/05 12:38:50;;;;;;;9.43;1.08;;;7.10;99.90;;;;;;5034906;28;20053;-84
2023/03/05 12:41:21;;;;;;;7.35;0.82;;;6.90;99.90;;;;;;5035374;28;20073;-85
2023/03/05 12:44:05;;;;;;;9.43;1.20;;;6.70;99.90;;;;;;5035769;28;20130;-84
2023/03/05 12:46:34;;;;;;;7.38;1.20;;;6.50;99.90;;;;;;5035689;28;20045;-84
2023/03/05 12:49:21;;;;;;;11.63;1.17;;;6.60;99.90;;;;;;5035162;28;20032;-84
2023/03/05 12:51:50;;;;;;;7.07;0.82;;;6.70;99.90;;;;;;5035996;28;20037;-84
2023/03/05 12:54:28;;;;;;;3.72;0.43;;;6.80;99.90;;;;;;5034054;28;20040;-85
2023/03/05 12:56:56;;;;;;;6.68;0.90;;;6.90;99.90;;;;;;5040960;28;20045;-85
2023/03/05 12:59:28;;;;;;;7.88;1.02;;;7.00;99.90;;;;;;5035550;28;20055;-84
2023/03/05 13:02:01;;;;;;;2.40;0.50;;;7.10;99.90;;;;;;5034285;28;20040;-84
2023/03/05 13:04:30;;;;;;;6.85;0.50;;;7.20;99.90;;;;;;5035298;28;20445;-84